sensor_id;sensor_type;location;lat;lon;timestamp;P1;durP1;ratioP1;P2;durP2;ratioP2
68940;SDS011;55982;51.476;7.552;2022-11-20T00:01:05;75.45;;;32.25;;
68940;SDS011;55982;51.476;7.552;2022-11-20T00:03:31;75.18;;;33.67;;
68940;SDS011;55982;51.476;7.552;2022-11-20T00:06:00;80.05;;;32.00;;
68940;SDS011;55982;51.476;7.552;2022-11-20T00:08:34;70.18;;;30.25;;
68940;SDS011;55982;51.476;7.552;2022-11-20T00:11:07;72.85;;;31.55;;
68940;SDS011;55982;51.476;7.552;2022-11-20T00:13:33;69.22;;;30.85;;
68940;SDS011;55982;51.476;7.552;2022-11-20T00:15:59;61.25;;;29.40;;
68940;SDS011;55982;51.476;7.552;2022-11-20T00:18:26;64.68;;;29.77;;
68940;SDS011;55982;51.476;7.552;2022-11-20T00:20:52;61.55;;;29.20;;
68940;SDS011;55982;51.476;7.552;2022-11-20T00:23:18;64.80;;;28.02;;
68940;SDS011;55982;51.476;7.552;2022-11-20T00:25:43;61.75;;;29.02;;
68940;SDS011;55982;51.476;7.552;2022-11-20T00:28:08;57.97;;;27.92;;
68940;SDS011;55982;51.476;7.552;2022-11-20T00:30:34;59.25;;;27.52;;
68940;SDS011;55982;51.476;7.552;2022-11-20T00:32:59;61.35;;;27.60;;
68940;SDS011;55982;51.476;7.552;2022-11-20T00:35:24;55.22;;;27.30;;
68940;SDS011;55982;51.476;7.552;2022-11-20T00:37:49;57.25;;;27.25;;
68940;SDS011;55982;51.476;7.552;2022-11-20T00:40:15;57.83;;;27.80;;
68940;SDS011;55982;51.476;7.552;2022-11-20T00:42:40;53.03;;;25.60;;
68940;SDS011;55982;51.476;7.552;2022-11-20T00:45:05;57.35;;;25.50;;
68940;SDS011;55982;51.476;7.552;2022-11-20T00:47:32;56.15;;;25.83;;
68940;SDS011;55982;51.476;7.552;2022-11-20T00:49:57;54.17;;;25.77;;
68940;SDS011;55982;51.476;7.552;2022-11-20T00:52:22;52.75;;;24.60;;
68940;SDS011;55982;51.476;7.552;2022-11-20T00:54:47;48.10;;;24.50;;
68940;SDS011;55982;51.476;7.552;2022-11-20T00:57:13;53.15;;;25.60;;
68940;SDS011;55982;51.476;7.552;2022-11-20T00:59:38;55.17;;;24.92;;
68940;SDS011;55982;51.476;7.552;2022-11-20T01:02:03;49.75;;;23.95;;
68940;SDS011;55982;51.476;7.552;2022-11-20T01:04:29;49.63;;;22.90;;
68940;SDS011;55982;51.476;7.552;2022-11-20T01:06:54;50.47;;;23.73;;
68940;SDS011;55982;51.476;7.552;2022-11-20T01:09:19;50.20;;;23.52;;
68940;SDS011;55982;51.476;7.552;2022-11-20T01:11:45;49.53;;;23.70;;
68940;SDS011;55982;51.476;7.552;2022-11-20T01:14:12;46.72;;;23.17;;
68940;SDS011;55982;51.476;7.552;2022-11-20T01:16:40;47.90;;;22.75;;
68940;SDS011;55982;51.476;7.552;2022-11-20T01:19:12;49.80;;;22.63;;
68940;SDS011;55982;51.476;7.552;2022-11-20T01:21:40;44.88;;;21.63;;
68940;SDS011;55982;51.476;7.552;2022-11-20T01:24:08;44.00;;;21.70;;
68940;SDS011;55982;51.476;7.552;2022-11-20T01:26:37;46.22;;;22.00;;
68940;SDS011;55982;51.476;7.552;2022-11-20T01:29:04;46.70;;;21.38;;
68940;SDS011;55982;51.476;7.552;2022-11-20T01:31:31;42.13;;;20.67;;
68940;SDS011;55982;51.476;7.552;2022-11-20T01:33:59;40.85;;;21.77;;
68940;SDS011;55982;51.476;7.552;2022-11-20T01:36:27;41.63;;;20.35;;
68940;SDS011;55982;51.476;7.552;2022-11-20T01:38:54;43.22;;;19.33;;
68940;SDS011;55982;51.476;7.552;2022-11-20T01:41:22;39.40;;;21.02;;
68940;SDS011;55982;51.476;7.552;2022-11-20T01:44:09;40.83;;;20.08;;
68940;SDS011;55982;51.476;7.552;2022-11-20T01:46:38;41.63;;;20.15;;
68940;SDS011;55982;51.476;7.552;2022-11-20T01:49:11;38.50;;;19.83;;
68940;SDS011;55982;51.476;7.552;2022-11-20T01:51:52;40.03;;;19.08;;
68940;SDS011;55982;51.476;7.552;2022-11-20T01:54:23;41.58;;;20.80;;
68940;SDS011;55982;51.476;7.552;2022-11-20T01:56:56;40.17;;;20.50;;
68940;SDS011;55982;51.476;7.552;2022-11-20T01:59:24;41.85;;;20.67;;
68940;SDS011;55982;51.476;7.552;2022-11-20T02:01:52;42.35;;;20.42;;
68940;SDS011;55982;51.476;7.552;2022-11-20T02:04:18;39.40;;;20.33;;
68940;SDS011;55982;51.476;7.552;2022-11-20T02:06:46;40.67;;;20.00;;
68940;SDS011;55982;51.476;7.552;2022-11-20T02:09:14;37.53;;;19.55;;
68940;SDS011;55982;51.476;7.552;2022-11-20T02:11:40;38.13;;;20.80;;
68940;SDS011;55982;51.476;7.552;2022-11-20T02:14:05;44.03;;;21.42;;
68940;SDS011;55982;51.476;7.552;2022-11-20T02:16:33;39.35;;;20.30;;
68940;SDS011;55982;51.476;7.552;2022-11-20T02:19:07;31.10;;;14.85;;
68940;SDS011;55982;51.476;7.552;2022-11-20T02:24:18;48.55;;;21.25;;
68940;SDS011;55982;51.476;7.552;2022-11-20T02:26:47;47.75;;;22.23;;
68940;SDS011;55982;51.476;7.552;2022-11-20T02:29:45;42.10;;;21.42;;
68940;SDS011;55982;51.476;7.552;2022-11-20T02:32:32;41.47;;;20.17;;
68940;SDS011;55982;51.476;7.552;2022-11-20T02:35:09;43.30;;;20.92;;
68940;SDS011;55982;51.476;7.552;2022-11-20T02:40:22;37.05;;;18.10;;
68940;SDS011;55982;51.476;7.552;2022-11-20T02:42:51;43.05;;;19.63;;
68940;SDS011;55982;51.476;7.552;2022-11-20T02:45:21;36.20;;;18.60;;
68940;SDS011;55982;51.476;7.552;2022-11-20T02:47:47;37.00;;;19.05;;
68940;SDS011;55982;51.476;7.552;2022-11-20T02:50:13;32.42;;;16.27;;
68940;SDS011;55982;51.476;7.552;2022-11-20T02:52:38;34.83;;;18.02;;
68940;SDS011;55982;51.476;7.552;2022-11-20T02:55:03;35.78;;;18.50;;
68940;SDS011;55982;51.476;7.552;2022-11-20T02:57:29;39.63;;;19.55;;
68940;SDS011;55982;51.476;7.552;2022-11-20T02:59:55;35.60;;;18.70;;
68940;SDS011;55982;51.476;7.552;2022-11-20T03:02:20;35.53;;;17.70;;
68940;SDS011;55982;51.476;7.552;2022-11-20T03:04:46;35.05;;;18.08;;
68940;SDS011;55982;51.476;7.552;2022-11-20T03:07:11;38.08;;;18.25;;
68940;SDS011;55982;51.476;7.552;2022-11-20T03:09:37;38.90;;;19.95;;
68940;SDS011;55982;51.476;7.552;2022-11-20T03:12:02;38.13;;;19.15;;
68940;SDS011;55982;51.476;7.552;2022-11-20T03:14:28;38.28;;;18.13;;
68940;SDS011;55982;51.476;7.552;2022-11-20T03:16:53;36.47;;;17.85;;
68940;SDS011;55982;51.476;7.552;2022-11-20T03:19:18;34.75;;;18.25;;
68940;SDS011;55982;51.476;7.552;2022-11-20T03:21:44;36.83;;;18.80;;
68940;SDS011;55982;51.476;7.552;2022-11-20T03:24:09;36.42;;;18.52;;
68940;SDS011;55982;51.476;7.552;2022-11-20T03:26:34;36.80;;;18.77;;
68940;SDS011;55982;51.476;7.552;2022-11-20T03:29:01;35.45;;;18.65;;
68940;SDS011;55982;51.476;7.552;2022-11-20T03:31:29;33.50;;;17.45;;
68940;SDS011;55982;51.476;7.552;2022-11-20T03:33:57;36.75;;;18.77;;
68940;SDS011;55982;51.476;7.552;2022-11-20T03:36:24;36.10;;;18.25;;
68940;SDS011;55982;51.476;7.552;2022-11-20T03:38:50;37.50;;;18.30;;
68940;SDS011;55982;51.476;7.552;2022-11-20T03:41:19;36.50;;;18.33;;
68940;SDS011;55982;51.476;7.552;2022-11-20T03:43:47;31.17;;;16.08;;
68940;SDS011;55982;51.476;7.552;2022-11-20T03:46:15;32.42;;;17.58;;
68940;SDS011;55982;51.476;7.552;2022-11-20T03:48:41;34.67;;;17.35;;
68940;SDS011;55982;51.476;7.552;2022-11-20T03:53:40;34.25;;;18.95;;
68940;SDS011;55982;51.476;7.552;2022-11-20T03:56:06;35.45;;;18.23;;
68940;SDS011;55982;51.476;7.552;2022-11-20T03:58:33;37.67;;;17.98;;
68940;SDS011;55982;51.476;7.552;2022-11-20T04:01:05;35.45;;;17.38;;
68940;SDS011;55982;51.476;7.552;2022-11-20T04:03:35;30.27;;;16.77;;
68940;SDS011;55982;51.476;7.552;2022-11-20T04:06:05;38.25;;;18.15;;
68940;SDS011;55982;51.476;7.552;2022-11-20T04:08:32;31.50;;;16.55;;
68940;SDS011;55982;51.476;7.552;2022-11-20T04:11:07;33.17;;;17.20;;
68940;SDS011;55982;51.476;7.552;2022-11-20T04:13:47;31.80;;;16.50;;
68940;SDS011;55982;51.476;7.552;2022-11-20T04:16:24;33.05;;;16.60;;
68940;SDS011;55982;51.476;7.552;2022-11-20T04:18:54;30.42;;;16.55;;
68940;SDS011;55982;51.476;7.552;2022-11-20T04:21:21;35.42;;;16.70;;
68940;SDS011;55982;51.476;7.552;2022-11-20T04:23:47;35.00;;;17.70;;
68940;SDS011;55982;51.476;7.552;2022-11-20T04:26:13;30.88;;;16.52;;
68940;SDS011;55982;51.476;7.552;2022-11-20T04:28:38;32.17;;;16.83;;
68940;SDS011;55982;51.476;7.552;2022-11-20T04:31:12;32.08;;;16.88;;
68940;SDS011;55982;51.476;7.552;2022-11-20T04:33:39;34.45;;;17.90;;
68940;SDS011;55982;51.476;7.552;2022-11-20T04:38:45;35.60;;;19.27;;
68940;SDS011;55982;51.476;7.552;2022-11-20T04:41:14;39.45;;;19.33;;
68940;SDS011;55982;51.476;7.552;2022-11-20T04:43:47;38.75;;;19.77;;
68940;SDS011;55982;51.476;7.552;2022-11-20T04:46:17;34.92;;;18.75;;
68940;SDS011;55982;51.476;7.552;2022-11-20T04:48:44;33.28;;;18.30;;
68940;SDS011;55982;51.476;7.552;2022-11-20T04:51:09;34.30;;;18.38;;
68940;SDS011;55982;51.476;7.552;2022-11-20T04:53:34;34.60;;;18.42;;
68940;SDS011;55982;51.476;7.552;2022-11-20T04:56:00;38.78;;;19.17;;
68940;SDS011;55982;51.476;7.552;2022-11-20T04:58:26;38.13;;;20.50;;
68940;SDS011;55982;51.476;7.552;2022-11-20T05:00:52;38.83;;;21.95;;
68940;SDS011;55982;51.476;7.552;2022-11-20T05:03:17;41.05;;;21.83;;
68940;SDS011;55982;51.476;7.552;2022-11-20T05:05:43;40.63;;;21.77;;
68940;SDS011;55982;51.476;7.552;2022-11-20T05:08:08;45.50;;;22.90;;
68940;SDS011;55982;51.476;7.552;2022-11-20T05:10:33;37.22;;;19.98;;
68940;SDS011;55982;51.476;7.552;2022-11-20T05:12:59;37.80;;;20.65;;
68940;SDS011;55982;51.476;7.552;2022-11-20T05:15:24;38.53;;;20.65;;
68940;SDS011;55982;51.476;7.552;2022-11-20T05:17:50;41.83;;;22.17;;
68940;SDS011;55982;51.476;7.552;2022-11-20T05:20:17;45.65;;;24.05;;
68940;SDS011;55982;51.476;7.552;2022-11-20T05:22:43;44.38;;;23.27;;
68940;SDS011;55982;51.476;7.552;2022-11-20T05:25:08;47.50;;;24.35;;
68940;SDS011;55982;51.476;7.552;2022-11-20T05:27:34;42.80;;;24.77;;
68940;SDS011;55982;51.476;7.552;2022-11-20T05:29:59;47.50;;;24.88;;
68940;SDS011;55982;51.476;7.552;2022-11-20T05:32:25;53.97;;;25.10;;
68940;SDS011;55982;51.476;7.552;2022-11-20T05:34:51;48.95;;;25.58;;
68940;SDS011;55982;51.476;7.552;2022-11-20T05:37:17;49.20;;;25.83;;
68940;SDS011;55982;51.476;7.552;2022-11-20T05:39:42;46.22;;;26.23;;
68940;SDS011;55982;51.476;7.552;2022-11-20T05:42:07;49.85;;;26.13;;
68940;SDS011;55982;51.476;7.552;2022-11-20T05:44:51;46.20;;;24.83;;
68940;SDS011;55982;51.476;7.552;2022-11-20T05:47:17;50.20;;;25.98;;
68940;SDS011;55982;51.476;7.552;2022-11-20T05:49:42;53.13;;;26.73;;
68940;SDS011;55982;51.476;7.552;2022-11-20T05:52:07;52.38;;;27.55;;
68940;SDS011;55982;51.476;7.552;2022-11-20T05:54:33;50.67;;;27.05;;
68940;SDS011;55982;51.476;7.552;2022-11-20T05:56:58;53.70;;;26.27;;
68940;SDS011;55982;51.476;7.552;2022-11-20T05:59:23;47.78;;;25.48;;
68940;SDS011;55982;51.476;7.552;2022-11-20T06:01:48;54.33;;;27.10;;
68940;SDS011;55982;51.476;7.552;2022-11-20T06:04:14;50.92;;;25.77;;
68940;SDS011;55982;51.476;7.552;2022-11-20T06:06:39;53.95;;;27.38;;
68940;SDS011;55982;51.476;7.552;2022-11-20T06:09:05;52.60;;;27.50;;
68940;SDS011;55982;51.476;7.552;2022-11-20T06:11:30;56.17;;;27.05;;
68940;SDS011;55982;51.476;7.552;2022-11-20T06:13:55;49.33;;;25.13;;
68940;SDS011;55982;51.476;7.552;2022-11-20T06:16:21;50.75;;;25.83;;
68940;SDS011;55982;51.476;7.552;2022-11-20T06:18:47;53.80;;;27.33;;
68940;SDS011;55982;51.476;7.552;2022-11-20T06:21:16;56.78;;;26.83;;
68940;SDS011;55982;51.476;7.552;2022-11-20T06:23:44;49.08;;;25.25;;
68940;SDS011;55982;51.476;7.552;2022-11-20T06:26:12;49.53;;;25.55;;
68940;SDS011;55982;51.476;7.552;2022-11-20T06:28:39;53.35;;;24.95;;
68940;SDS011;55982;51.476;7.552;2022-11-20T06:31:05;50.22;;;24.50;;
68940;SDS011;55982;51.476;7.552;2022-11-20T06:33:31;51.45;;;24.35;;
68940;SDS011;55982;51.476;7.552;2022-11-20T06:35:57;58.50;;;26.13;;
68940;SDS011;55982;51.476;7.552;2022-11-20T06:38:24;56.60;;;25.67;;
68940;SDS011;55982;51.476;7.552;2022-11-20T06:40:50;59.83;;;26.08;;
68940;SDS011;55982;51.476;7.552;2022-11-20T06:43:15;55.97;;;26.15;;
68940;SDS011;55982;51.476;7.552;2022-11-20T06:45:41;53.60;;;25.42;;
68940;SDS011;55982;51.476;7.552;2022-11-20T06:48:06;54.70;;;25.92;;
68940;SDS011;55982;51.476;7.552;2022-11-20T06:50:31;55.88;;;25.98;;
68940;SDS011;55982;51.476;7.552;2022-11-20T06:53:00;55.90;;;25.52;;
68940;SDS011;55982;51.476;7.552;2022-11-20T06:55:26;57.40;;;25.50;;
68940;SDS011;55982;51.476;7.552;2022-11-20T06:57:51;53.55;;;25.30;;
68940;SDS011;55982;51.476;7.552;2022-11-20T07:00:17;58.85;;;26.65;;
68940;SDS011;55982;51.476;7.552;2022-11-20T07:02:42;54.40;;;24.38;;
68940;SDS011;55982;51.476;7.552;2022-11-20T07:05:07;58.20;;;26.50;;
68940;SDS011;55982;51.476;7.552;2022-11-20T07:07:33;55.70;;;24.63;;
68940;SDS011;55982;51.476;7.552;2022-11-20T07:09:58;51.22;;;23.45;;
68940;SDS011;55982;51.476;7.552;2022-11-20T07:12:23;55.05;;;24.63;;
68940;SDS011;55982;51.476;7.552;2022-11-20T07:14:49;53.88;;;25.15;;
68940;SDS011;55982;51.476;7.552;2022-11-20T07:17:14;55.60;;;25.23;;
68940;SDS011;55982;51.476;7.552;2022-11-20T07:19:39;56.65;;;25.98;;
68940;SDS011;55982;51.476;7.552;2022-11-20T07:22:05;56.10;;;25.88;;
68940;SDS011;55982;51.476;7.552;2022-11-20T07:24:30;58.33;;;25.58;;
68940;SDS011;55982;51.476;7.552;2022-11-20T07:26:55;55.95;;;26.30;;
68940;SDS011;55982;51.476;7.552;2022-11-20T07:29:21;57.70;;;25.83;;
68940;SDS011;55982;51.476;7.552;2022-11-20T07:31:46;58.00;;;26.65;;
68940;SDS011;55982;51.476;7.552;2022-11-20T07:34:11;52.88;;;24.90;;
68940;SDS011;55982;51.476;7.552;2022-11-20T07:36:37;53.97;;;24.20;;
68940;SDS011;55982;51.476;7.552;2022-11-20T07:39:02;56.05;;;25.00;;
68940;SDS011;55982;51.476;7.552;2022-11-20T07:41:28;55.33;;;24.55;;
68940;SDS011;55982;51.476;7.552;2022-11-20T07:43:53;54.88;;;24.52;;
68940;SDS011;55982;51.476;7.552;2022-11-20T07:46:19;48.63;;;24.15;;
68940;SDS011;55982;51.476;7.552;2022-11-20T07:48:44;50.38;;;24.25;;
68940;SDS011;55982;51.476;7.552;2022-11-20T07:51:09;48.78;;;23.58;;
68940;SDS011;55982;51.476;7.552;2022-11-20T07:53:35;52.72;;;24.75;;
68940;SDS011;55982;51.476;7.552;2022-11-20T07:56:01;50.20;;;24.00;;
68940;SDS011;55982;51.476;7.552;2022-11-20T07:58:28;46.63;;;23.73;;
68940;SDS011;55982;51.476;7.552;2022-11-20T08:00:55;47.67;;;23.13;;
68940;SDS011;55982;51.476;7.552;2022-11-20T08:03:20;42.85;;;21.55;;
68940;SDS011;55982;51.476;7.552;2022-11-20T08:05:46;45.10;;;23.17;;
68940;SDS011;55982;51.476;7.552;2022-11-20T08:08:11;39.78;;;21.10;;
68940;SDS011;55982;51.476;7.552;2022-11-20T08:10:37;41.80;;;21.10;;
68940;SDS011;55982;51.476;7.552;2022-11-20T08:13:02;39.80;;;21.58;;
68940;SDS011;55982;51.476;7.552;2022-11-20T08:15:49;39.95;;;21.45;;
68940;SDS011;55982;51.476;7.552;2022-11-20T08:18:16;33.22;;;17.42;;
68940;SDS011;55982;51.476;7.552;2022-11-20T08:20:42;32.42;;;18.30;;
68940;SDS011;55982;51.476;7.552;2022-11-20T08:23:08;32.83;;;17.27;;
68940;SDS011;55982;51.476;7.552;2022-11-20T08:25:35;25.05;;;13.75;;
68940;SDS011;55982;51.476;7.552;2022-11-20T08:28:05;23.48;;;13.68;;
68940;SDS011;55982;51.476;7.552;2022-11-20T08:30:31;22.95;;;12.98;;
68940;SDS011;55982;51.476;7.552;2022-11-20T08:33:02;20.42;;;12.80;;
68940;SDS011;55982;51.476;7.552;2022-11-20T08:35:32;22.08;;;12.35;;
68940;SDS011;55982;51.476;7.552;2022-11-20T08:37:58;18.23;;;11.85;;
68940;SDS011;55982;51.476;7.552;2022-11-20T08:40:23;18.42;;;12.48;;
68940;SDS011;55982;51.476;7.552;2022-11-20T08:42:49;17.73;;;11.00;;
68940;SDS011;55982;51.476;7.552;2022-11-20T08:45:16;15.20;;;10.70;;
68940;SDS011;55982;51.476;7.552;2022-11-20T08:47:43;27.10;;;14.68;;
68940;SDS011;55982;51.476;7.552;2022-11-20T08:50:12;37.88;;;18.25;;
68940;SDS011;55982;51.476;7.552;2022-11-20T08:52:39;55.00;;;23.20;;
68940;SDS011;55982;51.476;7.552;2022-11-20T08:55:05;37.42;;;17.60;;
68940;SDS011;55982;51.476;7.552;2022-11-20T08:57:32;22.50;;;12.75;;
68940;SDS011;55982;51.476;7.552;2022-11-20T08:59:58;77.93;;;25.50;;
68940;SDS011;55982;51.476;7.552;2022-11-20T09:02:23;52.97;;;18.75;;
68940;SDS011;55982;51.476;7.552;2022-11-20T09:04:49;74.30;;;23.45;;
68940;SDS011;55982;51.476;7.552;2022-11-20T09:07:20;65.43;;;20.50;;
68940;SDS011;55982;51.476;7.552;2022-11-20T09:09:46;50.50;;;20.45;;
68940;SDS011;55982;51.476;7.552;2022-11-20T09:12:11;31.95;;;14.95;;
68940;SDS011;55982;51.476;7.552;2022-11-20T09:14:37;28.92;;;14.07;;
68940;SDS011;55982;51.476;7.552;2022-11-20T09:17:02;11.98;;;9.50;;
68940;SDS011;55982;51.476;7.552;2022-11-20T09:19:27;10.27;;;8.52;;
68940;SDS011;55982;51.476;7.552;2022-11-20T09:21:53;16.83;;;10.13;;
68940;SDS011;55982;51.476;7.552;2022-11-20T09:24:18;18.25;;;12.27;;
68940;SDS011;55982;51.476;7.552;2022-11-20T09:26:45;19.95;;;12.45;;
68940;SDS011;55982;51.476;7.552;2022-11-20T09:29:11;14.90;;;10.13;;
68940;SDS011;55982;51.476;7.552;2022-11-20T09:31:36;14.50;;;9.30;;
68940;SDS011;55982;51.476;7.552;2022-11-20T09:34:01;13.07;;;9.07;;
68940;SDS011;55982;51.476;7.552;2022-11-20T09:36:27;13.43;;;9.32;;
68940;SDS011;55982;51.476;7.552;2022-11-20T09:38:52;13.43;;;10.07;;
68940;SDS011;55982;51.476;7.552;2022-11-20T09:43:50;23.63;;;12.20;;
68940;SDS011;55982;51.476;7.552;2022-11-20T09:49:42;18.83;;;12.00;;
68940;SDS011;55982;51.476;7.552;2022-11-20T09:54:45;21.42;;;13.85;;
68940;SDS011;55982;51.476;7.552;2022-11-20T09:59:39;16.05;;;12.25;;
68940;SDS011;55982;51.476;7.552;2022-11-20T10:02:17;19.52;;;12.80;;
68940;SDS011;55982;51.476;7.552;2022-11-20T10:04:57;19.80;;;14.10;;
68940;SDS011;55982;51.476;7.552;2022-11-20T10:07:33;19.48;;;14.05;;
68940;SDS011;55982;51.476;7.552;2022-11-20T10:10:02;20.23;;;14.90;;
68940;SDS011;55982;51.476;7.552;2022-11-20T10:21:32;20.33;;;14.05;;
68940;SDS011;55982;51.476;7.552;2022-11-20T10:23:55;18.25;;;13.07;;
68940;SDS011;55982;51.476;7.552;2022-11-20T10:26:49;20.40;;;14.93;;
68940;SDS011;55982;51.476;7.552;2022-11-20T10:29:32;21.20;;;14.82;;
68940;SDS011;55982;51.476;7.552;2022-11-20T10:32:10;23.02;;;16.00;;
68940;SDS011;55982;51.476;7.552;2022-11-20T10:34:50;22.83;;;16.23;;
68940;SDS011;55982;51.476;7.552;2022-11-20T10:37:26;20.13;;;15.23;;
68940;SDS011;55982;51.476;7.552;2022-11-20T10:45:13;23.38;;;16.13;;
68940;SDS011;55982;51.476;7.552;2022-11-20T10:47:46;24.23;;;16.45;;
68940;SDS011;55982;51.476;7.552;2022-11-20T10:50:14;31.95;;;18.70;;
68940;SDS011;55982;51.476;7.552;2022-11-20T11:01:18;20.05;;;12.90;;
68940;SDS011;55982;51.476;7.552;2022-11-20T11:03:46;20.50;;;14.02;;
68940;SDS011;55982;51.476;7.552;2022-11-20T11:08:59;21.90;;;11.48;;
68940;SDS011;55982;51.476;7.552;2022-11-20T11:11:29;18.55;;;12.07;;
68940;SDS011;55982;51.476;7.552;2022-11-20T11:16:53;19.08;;;10.98;;
68940;SDS011;55982;51.476;7.552;2022-11-20T11:19:20;22.70;;;12.98;;
68940;SDS011;55982;51.476;7.552;2022-11-20T11:21:55;20.17;;;12.15;;
68940;SDS011;55982;51.476;7.552;2022-11-20T11:24:25;18.92;;;11.82;;
68940;SDS011;55982;51.476;7.552;2022-11-20T11:26:59;21.98;;;11.43;;
68940;SDS011;55982;51.476;7.552;2022-11-20T11:29:29;17.98;;;10.85;;
68940;SDS011;55982;51.476;7.552;2022-11-20T11:32:08;20.98;;;11.70;;
68940;SDS011;55982;51.476;7.552;2022-11-20T11:34:37;22.73;;;12.90;;
68940;SDS011;55982;51.476;7.552;2022-11-20T11:37:03;20.67;;;12.57;;
68940;SDS011;55982;51.476;7.552;2022-11-20T11:39:30;20.20;;;12.20;;
68940;SDS011;55982;51.476;7.552;2022-11-20T11:41:58;22.40;;;12.98;;
68940;SDS011;55982;51.476;7.552;2022-11-20T11:44:28;20.17;;;11.77;;
68940;SDS011;55982;51.476;7.552;2022-11-20T11:50:00;20.02;;;12.27;;
68940;SDS011;55982;51.476;7.552;2022-11-20T11:52:27;20.95;;;12.60;;
68940;SDS011;55982;51.476;7.552;2022-11-20T11:55:01;20.33;;;11.60;;
68940;SDS011;55982;51.476;7.552;2022-11-20T12:00:26;21.20;;;12.05;;
68940;SDS011;55982;51.476;7.552;2022-11-20T12:05:38;16.20;;;10.95;;
68940;SDS011;55982;51.476;7.552;2022-11-20T12:10:50;18.83;;;10.52;;
68940;SDS011;55982;51.476;7.552;2022-11-20T12:15:50;19.98;;;11.40;;
68940;SDS011;55982;51.476;7.552;2022-11-20T12:18:16;17.77;;;10.57;;
68940;SDS011;55982;51.476;7.552;2022-11-20T12:21:09;18.25;;;11.10;;
68940;SDS011;55982;51.476;7.552;2022-11-20T12:24:19;19.05;;;10.35;;
68940;SDS011;55982;51.476;7.552;2022-11-20T12:30:12;22.10;;;12.20;;
68940;SDS011;55982;51.476;7.552;2022-11-20T12:32:50;18.15;;;11.15;;
68940;SDS011;55982;51.476;7.552;2022-11-20T12:35:27;19.80;;;11.85;;
68940;SDS011;55982;51.476;7.552;2022-11-20T12:47:31;23.00;;;13.27;;
68940;SDS011;55982;51.476;7.552;2022-11-20T12:50:13;22.60;;;12.52;;
68940;SDS011;55982;51.476;7.552;2022-11-20T12:52:46;22.38;;;12.27;;
68940;SDS011;55982;51.476;7.552;2022-11-20T13:01:22;21.83;;;12.90;;
68940;SDS011;55982;51.476;7.552;2022-11-20T13:07:06;24.33;;;14.27;;
68940;SDS011;55982;51.476;7.552;2022-11-20T13:09:35;23.58;;;13.48;;
68940;SDS011;55982;51.476;7.552;2022-11-20T13:17:59;22.88;;;13.45;;
68940;SDS011;55982;51.476;7.552;2022-11-20T13:20:26;23.13;;;13.63;;
68940;SDS011;55982;51.476;7.552;2022-11-20T13:22:54;29.77;;;16.38;;
68940;SDS011;55982;51.476;7.552;2022-11-20T13:27:49;26.73;;;15.23;;
68940;SDS011;55982;51.476;7.552;2022-11-20T13:30:16;26.98;;;15.25;;
68940;SDS011;55982;51.476;7.552;2022-11-20T13:33:27;30.98;;;15.70;;
68940;SDS011;55982;51.476;7.552;2022-11-20T13:35:58;28.65;;;15.95;;
68940;SDS011;55982;51.476;7.552;2022-11-20T13:38:46;28.77;;;15.93;;
68940;SDS011;55982;51.476;7.552;2022-11-20T13:41:22;31.17;;;17.25;;
68940;SDS011;55982;51.476;7.552;2022-11-20T13:44:10;29.30;;;15.77;;
68940;SDS011;55982;51.476;7.552;2022-11-20T13:46:44;30.10;;;16.98;;
68940;SDS011;55982;51.476;7.552;2022-11-20T13:49:57;30.90;;;18.23;;
68940;SDS011;55982;51.476;7.552;2022-11-20T13:55:05;29.65;;;15.93;;
68940;SDS011;55982;51.476;7.552;2022-11-20T13:58:43;24.70;;;15.13;;
68940;SDS011;55982;51.476;7.552;2022-11-20T14:00:58;26.75;;;14.90;;
68940;SDS011;55982;51.476;7.552;2022-11-20T14:03:30;26.83;;;14.90;;
68940;SDS011;55982;51.476;7.552;2022-11-20T14:05:59;28.77;;;15.93;;
68940;SDS011;55982;51.476;7.552;2022-11-20T14:08:32;24.92;;;14.40;;
68940;SDS011;55982;51.476;7.552;2022-11-20T14:11:19;25.98;;;14.63;;
68940;SDS011;55982;51.476;7.552;2022-11-20T14:16:20;29.42;;;15.35;;
68940;SDS011;55982;51.476;7.552;2022-11-20T14:18:46;28.20;;;14.90;;
68940;SDS011;55982;51.476;7.552;2022-11-20T14:21:20;26.25;;;14.40;;
68940;SDS011;55982;51.476;7.552;2022-11-20T14:23:46;31.63;;;17.70;;
68940;SDS011;55982;51.476;7.552;2022-11-20T14:26:13;27.92;;;15.60;;
68940;SDS011;55982;51.476;7.552;2022-11-20T14:28:43;30.17;;;16.48;;
68940;SDS011;55982;51.476;7.552;2022-11-20T14:31:17;29.88;;;16.13;;
68940;SDS011;55982;51.476;7.552;2022-11-20T14:33:47;30.85;;;15.95;;
68940;SDS011;55982;51.476;7.552;2022-11-20T14:36:23;31.85;;;17.05;;
68940;SDS011;55982;51.476;7.552;2022-11-20T14:38:51;32.55;;;16.75;;
68940;SDS011;55982;51.476;7.552;2022-11-20T14:41:21;27.25;;;15.15;;
68940;SDS011;55982;51.476;7.552;2022-11-20T14:43:53;30.90;;;17.35;;
68940;SDS011;55982;51.476;7.552;2022-11-20T14:46:22;29.40;;;17.42;;
68940;SDS011;55982;51.476;7.552;2022-11-20T14:48:52;30.15;;;17.52;;
68940;SDS011;55982;51.476;7.552;2022-11-20T14:51:26;30.42;;;16.20;;
68940;SDS011;55982;51.476;7.552;2022-11-20T14:53:55;30.55;;;16.55;;
68940;SDS011;55982;51.476;7.552;2022-11-20T14:56:21;30.17;;;15.85;;
68940;SDS011;55982;51.476;7.552;2022-11-20T14:58:55;32.65;;;17.33;;
68940;SDS011;55982;51.476;7.552;2022-11-20T15:01:25;34.28;;;16.17;;
68940;SDS011;55982;51.476;7.552;2022-11-20T15:03:58;32.83;;;16.45;;
68940;SDS011;55982;51.476;7.552;2022-11-20T15:06:31;31.17;;;16.40;;
68940;SDS011;55982;51.476;7.552;2022-11-20T15:08:57;30.98;;;16.95;;
68940;SDS011;55982;51.476;7.552;2022-11-20T15:11:30;28.88;;;15.90;;
68940;SDS011;55982;51.476;7.552;2022-11-20T15:14:01;33.00;;;16.83;;
68940;SDS011;55982;51.476;7.552;2022-11-20T15:16:29;29.25;;;16.70;;
68940;SDS011;55982;51.476;7.552;2022-11-20T15:18:55;33.67;;;18.00;;
68940;SDS011;55982;51.476;7.552;2022-11-20T15:21:21;35.83;;;17.23;;
68940;SDS011;55982;51.476;7.552;2022-11-20T15:23:47;36.80;;;19.20;;
68940;SDS011;55982;51.476;7.552;2022-11-20T15:26:14;39.72;;;19.35;;
68940;SDS011;55982;51.476;7.552;2022-11-20T15:28:46;38.42;;;19.40;;
68940;SDS011;55982;51.476;7.552;2022-11-20T15:31:15;41.63;;;20.80;;
68940;SDS011;55982;51.476;7.552;2022-11-20T15:33:43;40.70;;;21.90;;
68940;SDS011;55982;51.476;7.552;2022-11-20T15:36:09;41.50;;;21.05;;
68940;SDS011;55982;51.476;7.552;2022-11-20T15:38:34;49.00;;;22.40;;
68940;SDS011;55982;51.476;7.552;2022-11-20T15:41:00;50.83;;;24.35;;
68940;SDS011;55982;51.476;7.552;2022-11-20T15:43:25;50.88;;;24.52;;
68940;SDS011;55982;51.476;7.552;2022-11-20T15:45:51;48.58;;;23.70;;
68940;SDS011;55982;51.476;7.552;2022-11-20T15:48:33;50.17;;;24.73;;
68940;SDS011;55982;51.476;7.552;2022-11-20T15:53:36;48.03;;;24.02;;
68940;SDS011;55982;51.476;7.552;2022-11-20T15:56:02;52.47;;;25.27;;
68940;SDS011;55982;51.476;7.552;2022-11-20T15:58:28;50.90;;;25.38;;
68940;SDS011;55982;51.476;7.552;2022-11-20T16:00:53;55.05;;;25.95;;
68940;SDS011;55982;51.476;7.552;2022-11-20T16:03:19;52.95;;;25.42;;
68940;SDS011;55982;51.476;7.552;2022-11-20T16:05:45;50.50;;;25.90;;
68940;SDS011;55982;51.476;7.552;2022-11-20T16:08:11;59.50;;;26.55;;
68940;SDS011;55982;51.476;7.552;2022-11-20T16:10:36;52.92;;;26.30;;
68940;SDS011;55982;51.476;7.552;2022-11-20T16:13:02;57.05;;;26.70;;